Martinsburg, Missouri
Current Conditions -  °F | °C
As of 5:18 AM on Saturday 25 Oct 2014 (Local Time) from KCOU Reporting Station
Haze Haze  
Wind Chill: 15°   Ceiling: Unl
Heat Index: 15°   Visibility: 4mi
Dew Point: 14°   Wind: 6mph
Humidity: 96%   Direction: 250°WSW
Pressure: 30.01"   Gusts: NA
Location:  39.1°N, 91.65°W
Report Text: KCOU 251018Z AUTO 25005KT 4SM BR CLR 15/14 A3001 RMK AO2 T01500144 $
Loading
Personal Weather Stations






























Interactive Weather Map
Tropical Storm Tracking
New forecast layout! Learn more

10-Day Weather Forecast

Advertisements
Track Severe Weather on mobile